sensor_id;sensor_type;location;lat;lon;timestamp;P1;durP1;ratioP1;P2;durP2;ratioP2
48006;SDS011;33771;48.180;11.400;2023-03-31T00:01:27;10.97;;;4.60;;
48006;SDS011;33771;48.180;11.400;2023-03-31T00:03:53;13.03;;;5.10;;
48006;SDS011;33771;48.180;11.400;2023-03-31T00:06:26;13.50;;;5.03;;
48006;SDS011;33771;48.180;11.400;2023-03-31T00:08:52;10.07;;;5.17;;
48006;SDS011;33771;48.180;11.400;2023-03-31T00:11:18;10.80;;;4.83;;
48006;SDS011;33771;48.180;11.400;2023-03-31T00:13:45;11.80;;;4.73;;
48006;SDS011;33771;48.180;11.400;2023-03-31T00:16:11;13.17;;;4.90;;
48006;SDS011;33771;48.180;11.400;2023-03-31T00:18:37;12.17;;;5.03;;
48006;SDS011;33771;48.180;11.400;2023-03-31T00:21:08;11.13;;;4.90;;
48006;SDS011;33771;48.180;11.400;2023-03-31T00:23:38;7.40;;;4.67;;
48006;SDS011;33771;48.180;11.400;2023-03-31T00:26:04;8.37;;;4.63;;
48006;SDS011;33771;48.180;11.400;2023-03-31T00:28:30;15.57;;;5.50;;
48006;SDS011;33771;48.180;11.400;2023-03-31T00:31:00;12.37;;;5.03;;
48006;SDS011;33771;48.180;11.400;2023-03-31T00:33:26;13.93;;;5.73;;
48006;SDS011;33771;48.180;11.400;2023-03-31T00:35:53;7.50;;;4.93;;
48006;SDS011;33771;48.180;11.400;2023-03-31T00:38:19;10.90;;;5.03;;
48006;SDS011;33771;48.180;11.400;2023-03-31T00:40:46;9.27;;;5.47;;
48006;SDS011;33771;48.180;11.400;2023-03-31T00:43:20;11.47;;;5.53;;
48006;SDS011;33771;48.180;11.400;2023-03-31T00:46:18;9.03;;;4.80;;
48006;SDS011;33771;48.180;11.400;2023-03-31T00:48:45;9.97;;;4.53;;
48006;SDS011;33771;48.180;11.400;2023-03-31T00:51:16;9.50;;;4.70;;
48006;SDS011;33771;48.180;11.400;2023-03-31T00:53:45;9.33;;;4.37;;
48006;SDS011;33771;48.180;11.400;2023-03-31T00:56:19;10.63;;;5.20;;
48006;SDS011;33771;48.180;11.400;2023-03-31T00:58:46;9.33;;;4.53;;
48006;SDS011;33771;48.180;11.400;2023-03-31T01:01:15;13.27;;;5.20;;
48006;SDS011;33771;48.180;11.400;2023-03-31T01:03:43;8.83;;;4.67;;
48006;SDS011;33771;48.180;11.400;2023-03-31T01:06:11;13.90;;;5.33;;
48006;SDS011;33771;48.180;11.400;2023-03-31T01:08:39;10.37;;;4.87;;
48006;SDS011;33771;48.180;11.400;2023-03-31T01:11:06;8.97;;;5.10;;
48006;SDS011;33771;48.180;11.400;2023-03-31T01:13:36;14.17;;;5.90;;
48006;SDS011;33771;48.180;11.400;2023-03-31T01:16:04;12.73;;;5.03;;
48006;SDS011;33771;48.180;11.400;2023-03-31T01:18:30;13.13;;;4.63;;
48006;SDS011;33771;48.180;11.400;2023-03-31T01:40:58;10.50;;;4.67;;
48006;SDS011;33771;48.180;11.400;2023-03-31T01:46:30;10.90;;;5.30;;
48006;SDS011;33771;48.180;11.400;2023-03-31T01:49:06;11.73;;;5.37;;
48006;SDS011;33771;48.180;11.400;2023-03-31T01:51:59;9.83;;;5.07;;
48006;SDS011;33771;48.180;11.400;2023-03-31T01:54:56;10.23;;;4.60;;
48006;SDS011;33771;48.180;11.400;2023-03-31T01:58:04;12.73;;;4.87;;
48006;SDS011;33771;48.180;11.400;2023-03-31T02:00:30;7.97;;;4.60;;
48006;SDS011;33771;48.180;11.400;2023-03-31T02:03:13;11.63;;;4.97;;
48006;SDS011;33771;48.180;11.400;2023-03-31T02:05:49;8.93;;;4.80;;
48006;SDS011;33771;48.180;11.400;2023-03-31T02:08:25;11.80;;;5.73;;
48006;SDS011;33771;48.180;11.400;2023-03-31T02:10:55;11.07;;;4.90;;
48006;SDS011;33771;48.180;11.400;2023-03-31T02:13:22;9.47;;;4.40;;
48006;SDS011;33771;48.180;11.400;2023-03-31T02:15:53;9.37;;;4.77;;
48006;SDS011;33771;48.180;11.400;2023-03-31T02:18:22;14.47;;;4.50;;
48006;SDS011;33771;48.180;11.400;2023-03-31T02:20:54;8.90;;;4.80;;
48006;SDS011;33771;48.180;11.400;2023-03-31T02:23:23;12.30;;;5.10;;
48006;SDS011;33771;48.180;11.400;2023-03-31T02:25:54;9.27;;;5.37;;
48006;SDS011;33771;48.180;11.400;2023-03-31T02:28:34;12.57;;;5.27;;
48006;SDS011;33771;48.180;11.400;2023-03-31T02:33:37;10.97;;;4.50;;
48006;SDS011;33771;48.180;11.400;2023-03-31T02:36:06;14.23;;;4.90;;
48006;SDS011;33771;48.180;11.400;2023-03-31T02:38:36;13.03;;;5.60;;
48006;SDS011;33771;48.180;11.400;2023-03-31T02:41:07;8.30;;;4.73;;
48006;SDS011;33771;48.180;11.400;2023-03-31T02:43:33;9.57;;;4.43;;
48006;SDS011;33771;48.180;11.400;2023-03-31T02:45:58;11.13;;;5.27;;
48006;SDS011;33771;48.180;11.400;2023-03-31T02:48:25;9.97;;;5.30;;
48006;SDS011;33771;48.180;11.400;2023-03-31T02:54:13;11.40;;;4.43;;
48006;SDS011;33771;48.180;11.400;2023-03-31T03:00:28;11.83;;;4.87;;
48006;SDS011;33771;48.180;11.400;2023-03-31T03:08:28;11.53;;;4.67;;
48006;SDS011;33771;48.180;11.400;2023-03-31T03:11:14;12.57;;;5.40;;
48006;SDS011;33771;48.180;11.400;2023-03-31T03:16:31;10.97;;;4.80;;
48006;SDS011;33771;48.180;11.400;2023-03-31T03:19:01;10.27;;;4.67;;
48006;SDS011;33771;48.180;11.400;2023-03-31T03:21:29;15.50;;;4.63;;
48006;SDS011;33771;48.180;11.400;2023-03-31T03:23:55;11.83;;;4.63;;
48006;SDS011;33771;48.180;11.400;2023-03-31T03:26:21;16.43;;;4.70;;
48006;SDS011;33771;48.180;11.400;2023-03-31T03:28:48;11.87;;;4.80;;
48006;SDS011;33771;48.180;11.400;2023-03-31T03:31:14;11.70;;;4.13;;
48006;SDS011;33771;48.180;11.400;2023-03-31T03:33:41;13.03;;;4.63;;
48006;SDS011;33771;48.180;11.400;2023-03-31T03:36:09;13.97;;;5.30;;
48006;SDS011;33771;48.180;11.400;2023-03-31T03:38:35;17.50;;;5.80;;
48006;SDS011;33771;48.180;11.400;2023-03-31T03:41:00;11.07;;;4.27;;
48006;SDS011;33771;48.180;11.400;2023-03-31T03:43:26;16.27;;;4.93;;
48006;SDS011;33771;48.180;11.400;2023-03-31T03:45:52;15.53;;;5.40;;
48006;SDS011;33771;48.180;11.400;2023-03-31T03:48:17;12.67;;;5.13;;
48006;SDS011;33771;48.180;11.400;2023-03-31T03:50:46;16.77;;;5.17;;
48006;SDS011;33771;48.180;11.400;2023-03-31T03:53:12;12.03;;;5.37;;
48006;SDS011;33771;48.180;11.400;2023-03-31T03:55:38;9.70;;;5.17;;
48006;SDS011;33771;48.180;11.400;2023-03-31T03:58:04;11.67;;;5.07;;
48006;SDS011;33771;48.180;11.400;2023-03-31T04:00:30;16.20;;;7.37;;
48006;SDS011;33771;48.180;11.400;2023-03-31T04:02:56;13.33;;;5.60;;
48006;SDS011;33771;48.180;11.400;2023-03-31T04:05:22;11.40;;;6.37;;
48006;SDS011;33771;48.180;11.400;2023-03-31T04:07:47;14.97;;;6.43;;
48006;SDS011;33771;48.180;11.400;2023-03-31T04:10:16;15.07;;;6.30;;
48006;SDS011;33771;48.180;11.400;2023-03-31T04:12:41;9.33;;;5.13;;
48006;SDS011;33771;48.180;11.400;2023-03-31T04:15:07;15.10;;;6.20;;
48006;SDS011;33771;48.180;11.400;2023-03-31T04:17:33;15.33;;;6.50;;
48006;SDS011;33771;48.180;11.400;2023-03-31T04:20:08;10.30;;;6.17;;
48006;SDS011;33771;48.180;11.400;2023-03-31T04:22:35;11.33;;;6.30;;
48006;SDS011;33771;48.180;11.400;2023-03-31T04:25:05;17.10;;;7.50;;
48006;SDS011;33771;48.180;11.400;2023-03-31T04:27:40;17.17;;;7.73;;
48006;SDS011;33771;48.180;11.400;2023-03-31T04:30:28;11.03;;;6.30;;
48006;SDS011;33771;48.180;11.400;2023-03-31T04:32:57;13.03;;;6.43;;
48006;SDS011;33771;48.180;11.400;2023-03-31T04:35:28;16.43;;;7.63;;
48006;SDS011;33771;48.180;11.400;2023-03-31T04:38:13;14.18;;;6.85;;
48006;SDS011;33771;48.180;11.400;2023-03-31T04:40:47;15.10;;;7.73;;
48006;SDS011;33771;48.180;11.400;2023-03-31T04:43:14;15.27;;;6.40;;
48006;SDS011;33771;48.180;11.400;2023-03-31T04:45:41;14.83;;;7.20;;
48006;SDS011;33771;48.180;11.400;2023-03-31T04:48:07;21.03;;;7.50;;
48006;SDS011;33771;48.180;11.400;2023-03-31T04:50:33;16.13;;;6.87;;
48006;SDS011;33771;48.180;11.400;2023-03-31T04:52:58;21.10;;;11.37;;
48006;SDS011;33771;48.180;11.400;2023-03-31T04:55:26;18.23;;;7.97;;
48006;SDS011;33771;48.180;11.400;2023-03-31T04:57:52;12.63;;;7.60;;
48006;SDS011;33771;48.180;11.400;2023-03-31T05:00:18;17.23;;;9.20;;
48006;SDS011;33771;48.180;11.400;2023-03-31T05:02:44;16.50;;;8.80;;
48006;SDS011;33771;48.180;11.400;2023-03-31T05:05:10;14.90;;;8.23;;
48006;SDS011;33771;48.180;11.400;2023-03-31T05:07:36;19.43;;;8.60;;
48006;SDS011;33771;48.180;11.400;2023-03-31T05:10:02;17.23;;;8.70;;
48006;SDS011;33771;48.180;11.400;2023-03-31T05:12:29;14.33;;;8.43;;
48006;SDS011;33771;48.180;11.400;2023-03-31T05:14:59;17.47;;;8.83;;
48006;SDS011;33771;48.180;11.400;2023-03-31T05:17:26;14.87;;;8.57;;
48006;SDS011;33771;48.180;11.400;2023-03-31T05:19:55;16.03;;;8.07;;
48006;SDS011;33771;48.180;11.400;2023-03-31T05:22:20;17.40;;;9.37;;
48006;SDS011;33771;48.180;11.400;2023-03-31T05:24:46;18.93;;;8.43;;
48006;SDS011;33771;48.180;11.400;2023-03-31T05:27:11;22.30;;;9.83;;
48006;SDS011;33771;48.180;11.400;2023-03-31T05:29:37;17.03;;;8.60;;
48006;SDS011;33771;48.180;11.400;2023-03-31T05:32:03;18.30;;;9.50;;
48006;SDS011;33771;48.180;11.400;2023-03-31T05:34:29;22.30;;;9.67;;
48006;SDS011;33771;48.180;11.400;2023-03-31T05:36:54;15.27;;;8.27;;
48006;SDS011;33771;48.180;11.400;2023-03-31T05:39:20;20.87;;;8.80;;
48006;SDS011;33771;48.180;11.400;2023-03-31T05:41:46;16.33;;;8.97;;
48006;SDS011;33771;48.180;11.400;2023-03-31T05:44:12;12.17;;;8.50;;
48006;SDS011;33771;48.180;11.400;2023-03-31T05:46:37;18.57;;;9.20;;
48006;SDS011;33771;48.180;11.400;2023-03-31T05:49:03;22.10;;;9.80;;
48006;SDS011;33771;48.180;11.400;2023-03-31T05:51:29;21.40;;;9.70;;
48006;SDS011;33771;48.180;11.400;2023-03-31T05:53:54;20.60;;;9.37;;
48006;SDS011;33771;48.180;11.400;2023-03-31T05:56:22;17.27;;;8.83;;
48006;SDS011;33771;48.180;11.400;2023-03-31T05:58:48;17.27;;;8.10;;
48006;SDS011;33771;48.180;11.400;2023-03-31T06:01:15;16.13;;;9.00;;
48006;SDS011;33771;48.180;11.400;2023-03-31T06:03:44;19.00;;;8.30;;
48006;SDS011;33771;48.180;11.400;2023-03-31T06:06:10;13.87;;;8.23;;
48006;SDS011;33771;48.180;11.400;2023-03-31T06:08:41;17.57;;;8.70;;
48006;SDS011;33771;48.180;11.400;2023-03-31T06:11:15;18.30;;;8.00;;
48006;SDS011;33771;48.180;11.400;2023-03-31T06:14:21;12.17;;;7.67;;
48006;SDS011;33771;48.180;11.400;2023-03-31T06:19:22;16.80;;;7.95;;
48006;SDS011;33771;48.180;11.400;2023-03-31T06:21:51;14.47;;;7.37;;
48006;SDS011;33771;48.180;11.400;2023-03-31T06:24:20;16.23;;;8.30;;
48006;SDS011;33771;48.180;11.400;2023-03-31T06:26:51;16.80;;;8.20;;
48006;SDS011;33771;48.180;11.400;2023-03-31T06:29:20;14.70;;;7.37;;
48006;SDS011;33771;48.180;11.400;2023-03-31T06:35:04;15.77;;;7.67;;
48006;SDS011;33771;48.180;11.400;2023-03-31T06:37:41;14.87;;;7.57;;
48006;SDS011;33771;48.180;11.400;2023-03-31T06:43:04;14.70;;;7.27;;
48006;SDS011;33771;48.180;11.400;2023-03-31T06:45:29;13.98;;;7.55;;
48006;SDS011;33771;48.180;11.400;2023-03-31T06:48:00;13.57;;;7.53;;
48006;SDS011;33771;48.180;11.400;2023-03-31T06:50:35;13.27;;;7.27;;
48006;SDS011;33771;48.180;11.400;2023-03-31T06:53:41;13.43;;;7.47;;
48006;SDS011;33771;48.180;11.400;2023-03-31T06:56:09;12.70;;;7.50;;
48006;SDS011;33771;48.180;11.400;2023-03-31T06:58:43;11.40;;;7.53;;
48006;SDS011;33771;48.180;11.400;2023-03-31T07:01:11;14.30;;;8.10;;
48006;SDS011;33771;48.180;11.400;2023-03-31T07:03:39;13.10;;;7.70;;
48006;SDS011;33771;48.180;11.400;2023-03-31T07:06:13;19.43;;;7.00;;
48006;SDS011;33771;48.180;11.400;2023-03-31T07:08:41;14.90;;;7.73;;
48006;SDS011;33771;48.180;11.400;2023-03-31T07:11:09;17.13;;;8.53;;
48006;SDS011;33771;48.180;11.400;2023-03-31T07:13:38;16.80;;;7.60;;
48006;SDS011;33771;48.180;11.400;2023-03-31T07:16:14;15.40;;;7.90;;
48006;SDS011;33771;48.180;11.400;2023-03-31T07:18:50;13.83;;;7.63;;
48006;SDS011;33771;48.180;11.400;2023-03-31T07:21:21;17.47;;;8.10;;
48006;SDS011;33771;48.180;11.400;2023-03-31T07:23:49;19.67;;;9.53;;
48006;SDS011;33771;48.180;11.400;2023-03-31T07:26:20;15.87;;;7.90;;
48006;SDS011;33771;48.180;11.400;2023-03-31T07:31:41;17.17;;;8.47;;
48006;SDS011;33771;48.180;11.400;2023-03-31T07:34:09;19.93;;;10.93;;
48006;SDS011;33771;48.180;11.400;2023-03-31T07:36:46;15.80;;;9.33;;
48006;SDS011;33771;48.180;11.400;2023-03-31T07:39:51;21.63;;;9.30;;
48006;SDS011;33771;48.180;11.400;2023-03-31T07:42:20;15.57;;;8.53;;
48006;SDS011;33771;48.180;11.400;2023-03-31T07:44:51;21.63;;;9.73;;
48006;SDS011;33771;48.180;11.400;2023-03-31T07:47:32;22.37;;;9.73;;
48006;SDS011;33771;48.180;11.400;2023-03-31T07:56:14;18.23;;;9.83;;
48006;SDS011;33771;48.180;11.400;2023-03-31T07:58:53;19.67;;;10.90;;
48006;SDS011;33771;48.180;11.400;2023-03-31T08:01:54;17.93;;;10.23;;
48006;SDS011;33771;48.180;11.400;2023-03-31T08:07:59;18.27;;;10.10;;
48006;SDS011;33771;48.180;11.400;2023-03-31T08:11:11;14.63;;;9.13;;
48006;SDS011;33771;48.180;11.400;2023-03-31T08:13:42;19.53;;;8.83;;
48006;SDS011;33771;48.180;11.400;2023-03-31T08:16:20;18.33;;;8.20;;
48006;SDS011;33771;48.180;11.400;2023-03-31T08:25:44;14.80;;;7.53;;
48006;SDS011;33771;48.180;11.400;2023-03-31T08:38:23;14.13;;;7.23;;
48006;SDS011;33771;48.180;11.400;2023-03-31T09:36:21;7.00;;;3.03;;
48006;SDS011;33771;48.180;11.400;2023-03-31T09:46:34;3.80;;;2.15;;
48006;SDS011;33771;48.180;11.400;2023-03-31T10:23:25;4.70;;;2.10;;
48006;SDS011;33771;48.180;11.400;2023-03-31T10:26:22;6.20;;;2.20;;
48006;SDS011;33771;48.180;11.400;2023-03-31T10:29:02;6.55;;;2.80;;
48006;SDS011;33771;48.180;11.400;2023-03-31T10:31:40;5.50;;;2.50;;
48006;SDS011;33771;48.180;11.400;2023-03-31T10:34:14;7.60;;;2.25;;
48006;SDS011;33771;48.180;11.400;2023-03-31T10:36:52;5.75;;;2.20;;
48006;SDS011;33771;48.180;11.400;2023-03-31T10:39:18;5.25;;;2.85;;
48006;SDS011;33771;48.180;11.400;2023-03-31T11:10:23;6.90;;;2.75;;
48006;SDS011;33771;48.180;11.400;2023-03-31T11:22:24;6.78;;;1.42;;
48006;SDS011;33771;48.180;11.400;2023-03-31T11:40:44;1.92;;;1.17;;
48006;SDS011;33771;48.180;11.400;2023-03-31T11:43:52;3.47;;;1.53;;
48006;SDS011;33771;48.180;11.400;2023-03-31T11:49:40;3.83;;;1.80;;
48006;SDS011;33771;48.180;11.400;2023-03-31T11:55:54;3.30;;;1.50;;
48006;SDS011;33771;48.180;11.400;2023-03-31T11:59:34;3.22;;;1.50;;
48006;SDS011;33771;48.180;11.400;2023-03-31T12:05:12;2.60;;;1.40;;
48006;SDS011;33771;48.180;11.400;2023-03-31T12:07:54;3.60;;;1.15;;
48006;SDS011;33771;48.180;11.400;2023-03-31T12:10:35;2.92;;;1.50;;
48006;SDS011;33771;48.180;11.400;2023-03-31T12:21:55;4.40;;;1.47;;
48006;SDS011;33771;48.180;11.400;2023-03-31T12:25:13;3.10;;;1.20;;
48006;SDS011;33771;48.180;11.400;2023-03-31T12:27:53;3.90;;;1.80;;
48006;SDS011;33771;48.180;11.400;2023-03-31T12:30:30;4.88;;;1.30;;
48006;SDS011;33771;48.180;11.400;2023-03-31T12:33:34;5.88;;;1.23;;
48006;SDS011;33771;48.180;11.400;2023-03-31T12:36:22;4.82;;;1.80;;
48006;SDS011;33771;48.180;11.400;2023-03-31T12:59:45;4.57;;;1.95;;
48006;SDS011;33771;48.180;11.400;2023-03-31T13:02:34;3.78;;;1.90;;
48006;SDS011;33771;48.180;11.400;2023-03-31T13:05:02;4.65;;;1.80;;
48006;SDS011;33771;48.180;11.400;2023-03-31T13:08:00;3.85;;;1.52;;
48006;SDS011;33771;48.180;11.400;2023-03-31T13:10:51;4.00;;;1.55;;
48006;SDS011;33771;48.180;11.400;2023-03-31T13:16:51;2.45;;;1.05;;
48006;SDS011;33771;48.180;11.400;2023-03-31T13:19:45;2.53;;;1.00;;
48006;SDS011;33771;48.180;11.400;2023-03-31T13:22:29;4.18;;;1.23;;
48006;SDS011;33771;48.180;11.400;2023-03-31T13:30:54;3.35;;;1.10;;
48006;SDS011;33771;48.180;11.400;2023-03-31T13:36:24;3.28;;;1.00;;
48006;SDS011;33771;48.180;11.400;2023-03-31T13:41:56;3.63;;;1.15;;
48006;SDS011;33771;48.180;11.400;2023-03-31T13:44:51;3.45;;;1.10;;
48006;SDS011;33771;48.180;11.400;2023-03-31T13:47:57;4.18;;;1.30;;
48006;SDS011;33771;48.180;11.400;2023-03-31T13:50:44;4.22;;;1.08;;
48006;SDS011;33771;48.180;11.400;2023-03-31T13:53:45;4.50;;;1.10;;
48006;SDS011;33771;48.180;11.400;2023-03-31T13:56:58;7.20;;;2.05;;
48006;SDS011;33771;48.180;11.400;2023-03-31T14:02:47;1.58;;;1.00;;
48006;SDS011;33771;48.180;11.400;2023-03-31T14:11:31;3.03;;;1.10;;
48006;SDS011;33771;48.180;11.400;2023-03-31T14:16:44;2.05;;;0.98;;
48006;SDS011;33771;48.180;11.400;2023-03-31T14:19:51;2.75;;;1.17;;
48006;SDS011;33771;48.180;11.400;2023-03-31T14:34:12;5.15;;;1.35;;
48006;SDS011;33771;48.180;11.400;2023-03-31T14:40:00;7.07;;;1.30;;
48006;SDS011;33771;48.180;11.400;2023-03-31T14:46:03;4.90;;;1.47;;
48006;SDS011;33771;48.180;11.400;2023-03-31T14:48:43;2.40;;;1.20;;
48006;SDS011;33771;48.180;11.400;2023-03-31T14:51:24;2.17;;;1.03;;
48006;SDS011;33771;48.180;11.400;2023-03-31T14:54:01;2.83;;;1.03;;
48006;SDS011;33771;48.180;11.400;2023-03-31T14:56:33;3.00;;;1.10;;
48006;SDS011;33771;48.180;11.400;2023-03-31T14:59:13;1.73;;;0.80;;
48006;SDS011;33771;48.180;11.400;2023-03-31T15:02:02;2.13;;;1.08;;
48006;SDS011;33771;48.180;11.400;2023-03-31T15:04:35;10.27;;;4.20;;
48006;SDS011;33771;48.180;11.400;2023-03-31T15:07:12;1.80;;;1.10;;
48006;SDS011;33771;48.180;11.400;2023-03-31T15:09:42;4.23;;;1.63;;
48006;SDS011;33771;48.180;11.400;2023-03-31T15:12:22;3.70;;;1.20;;
48006;SDS011;33771;48.180;11.400;2023-03-31T15:14:52;2.83;;;1.10;;
48006;SDS011;33771;48.180;11.400;2023-03-31T15:17:36;2.57;;;1.27;;
48006;SDS011;33771;48.180;11.400;2023-03-31T15:23:32;1.70;;;0.90;;
48006;SDS011;33771;48.180;11.400;2023-03-31T15:26:07;2.97;;;1.20;;
48006;SDS011;33771;48.180;11.400;2023-03-31T15:31:55;3.80;;;1.20;;
48006;SDS011;33771;48.180;11.400;2023-03-31T15:34:51;3.60;;;1.20;;
48006;SDS011;33771;48.180;11.400;2023-03-31T15:37:30;4.90;;;1.40;;
48006;SDS011;33771;48.180;11.400;2023-03-31T15:40:23;6.55;;;1.40;;
48006;SDS011;33771;48.180;11.400;2023-03-31T15:46:23;5.53;;;1.20;;
48006;SDS011;33771;48.180;11.400;2023-03-31T15:49:22;3.57;;;1.20;;
48006;SDS011;33771;48.180;11.400;2023-03-31T15:51:51;5.90;;;1.20;;
48006;SDS011;33771;48.180;11.400;2023-03-31T15:54:41;5.67;;;1.40;;
48006;SDS011;33771;48.180;11.400;2023-03-31T15:57:15;3.60;;;1.20;;
48006;SDS011;33771;48.180;11.400;2023-03-31T16:03:02;3.50;;;1.33;;
48006;SDS011;33771;48.180;11.400;2023-03-31T16:05:45;3.50;;;1.20;;
48006;SDS011;33771;48.180;11.400;2023-03-31T16:08:23;2.88;;;1.15;;
48006;SDS011;33771;48.180;11.400;2023-03-31T16:20:17;2.50;;;1.33;;
48006;SDS011;33771;48.180;11.400;2023-03-31T16:22:52;3.03;;;1.48;;
48006;SDS011;33771;48.180;11.400;2023-03-31T16:25:41;5.05;;;1.50;;
48006;SDS011;33771;48.180;11.400;2023-03-31T16:31:06;4.95;;;1.55;;
48006;SDS011;33771;48.180;11.400;2023-03-31T16:37:13;3.63;;;1.67;;
48006;SDS011;33771;48.180;11.400;2023-03-31T16:39:41;5.70;;;1.92;;
48006;SDS011;33771;48.180;11.400;2023-03-31T16:42:15;4.90;;;1.90;;
48006;SDS011;33771;48.180;11.400;2023-03-31T16:44:54;3.35;;;1.63;;
48006;SDS011;33771;48.180;11.400;2023-03-31T16:47:22;4.95;;;1.73;;
48006;SDS011;33771;48.180;11.400;2023-03-31T16:49:51;3.93;;;1.10;;
48006;SDS011;33771;48.180;11.400;2023-03-31T16:52:24;0.67;;;0.60;;
48006;SDS011;33771;48.180;11.400;2023-03-31T16:54:53;2.13;;;0.80;;
48006;SDS011;33771;48.180;11.400;2023-03-31T16:57:21;6.43;;;1.23;;
48006;SDS011;33771;48.180;11.400;2023-03-31T16:59:53;5.27;;;1.13;;
48006;SDS011;33771;48.180;11.400;2023-03-31T17:02:21;2.20;;;1.00;;
48006;SDS011;33771;48.180;11.400;2023-03-31T17:04:55;2.37;;;1.13;;
48006;SDS011;33771;48.180;11.400;2023-03-31T17:07:21;3.57;;;1.20;;
48006;SDS011;33771;48.180;11.400;2023-03-31T17:09:54;4.10;;;1.20;;
48006;SDS011;33771;48.180;11.400;2023-03-31T17:12:23;2.13;;;1.00;;
48006;SDS011;33771;48.180;11.400;2023-03-31T17:14:51;5.13;;;1.00;;
48006;SDS011;33771;48.180;11.400;2023-03-31T17:17:23;2.67;;;1.17;;
48006;SDS011;33771;48.180;11.400;2023-03-31T17:19:52;2.37;;;1.07;;
48006;SDS011;33771;48.180;11.400;2023-03-31T17:28:15;1.73;;;1.00;;
48006;SDS011;33771;48.180;11.400;2023-03-31T17:31:14;0.87;;;0.80;;
48006;SDS011;33771;48.180;11.400;2023-03-31T17:33:51;1.47;;;0.80;;
48006;SDS011;33771;48.180;11.400;2023-03-31T17:36:23;3.53;;;0.90;;
48006;SDS011;33771;48.180;11.400;2023-03-31T17:38:51;1.73;;;0.90;;
48006;SDS011;33771;48.180;11.400;2023-03-31T17:49:53;2.00;;;0.97;;
48006;SDS011;33771;48.180;11.400;2023-03-31T17:52:41;1.60;;;0.83;;
48006;SDS011;33771;48.180;11.400;2023-03-31T17:55:12;1.27;;;0.70;;
48006;SDS011;33771;48.180;11.400;2023-03-31T17:57:53;1.70;;;0.90;;
48006;SDS011;33771;48.180;11.400;2023-03-31T18:00:22;3.43;;;0.97;;
48006;SDS011;33771;48.180;11.400;2023-03-31T18:03:13;3.90;;;1.43;;
48006;SDS011;33771;48.180;11.400;2023-03-31T18:09:03;2.47;;;1.20;;
48006;SDS011;33771;48.180;11.400;2023-03-31T18:11:33;2.73;;;1.00;;
48006;SDS011;33771;48.180;11.400;2023-03-31T18:14:23;2.03;;;1.20;;
48006;SDS011;33771;48.180;11.400;2023-03-31T18:16:52;2.80;;;1.27;;
48006;SDS011;33771;48.180;11.400;2023-03-31T18:19:21;2.50;;;1.00;;
48006;SDS011;33771;48.180;11.400;2023-03-31T18:21:52;3.93;;;1.20;;
48006;SDS011;33771;48.180;11.400;2023-03-31T18:24:24;2.77;;;1.17;;
48006;SDS011;33771;48.180;11.400;2023-03-31T18:26:52;5.43;;;1.20;;
48006;SDS011;33771;48.180;11.400;2023-03-31T18:29:21;2.33;;;1.10;;
48006;SDS011;33771;48.180;11.400;2023-03-31T18:31:53;2.50;;;1.00;;
48006;SDS011;33771;48.180;11.400;2023-03-31T18:34:21;4.83;;;1.10;;
48006;SDS011;33771;48.180;11.400;2023-03-31T18:36:54;3.37;;;1.00;;
48006;SDS011;33771;48.180;11.400;2023-03-31T18:39:43;2.20;;;0.90;;
48006;SDS011;33771;48.180;11.400;2023-03-31T18:42:12;2.77;;;1.00;;
48006;SDS011;33771;48.180;11.400;2023-03-31T18:44:43;2.17;;;0.83;;
48006;SDS011;33771;48.180;11.400;2023-03-31T18:47:11;4.13;;;1.20;;
48006;SDS011;33771;48.180;11.400;2023-03-31T18:49:44;3.80;;;1.20;;
48006;SDS011;33771;48.180;11.400;2023-03-31T18:52:12;4.55;;;1.10;;
48006;SDS011;33771;48.180;11.400;2023-03-31T18:54:41;4.60;;;1.80;;
48006;SDS011;33771;48.180;11.400;2023-03-31T19:00:01;2.63;;;1.00;;
48006;SDS011;33771;48.180;11.400;2023-03-31T19:05:44;3.50;;;1.30;;
48006;SDS011;33771;48.180;11.400;2023-03-31T19:08:12;2.20;;;0.90;;
48006;SDS011;33771;48.180;11.400;2023-03-31T19:10:41;2.63;;;1.10;;
48006;SDS011;33771;48.180;11.400;2023-03-31T19:13:13;5.37;;;1.07;;
48006;SDS011;33771;48.180;11.400;2023-03-31T19:15:43;2.83;;;1.07;;
48006;SDS011;33771;48.180;11.400;2023-03-31T19:18:14;5.90;;;1.30;;
48006;SDS011;33771;48.180;11.400;2023-03-31T19:20:45;3.33;;;1.20;;
48006;SDS011;33771;48.180;11.400;2023-03-31T19:23:13;3.03;;;1.10;;
48006;SDS011;33771;48.180;11.400;2023-03-31T19:25:42;3.60;;;1.10;;
48006;SDS011;33771;48.180;11.400;2023-03-31T19:31:03;2.27;;;1.20;;
48006;SDS011;33771;48.180;11.400;2023-03-31T19:33:32;4.83;;;1.33;;
48006;SDS011;33771;48.180;11.400;2023-03-31T19:36:07;3.50;;;1.20;;
48006;SDS011;33771;48.180;11.400;2023-03-31T19:38:43;4.83;;;1.53;;
48006;SDS011;33771;48.180;11.400;2023-03-31T19:41:11;3.93;;;1.10;;
48006;SDS011;33771;48.180;11.400;2023-03-31T19:43:38;3.60;;;1.10;;
48006;SDS011;33771;48.180;11.400;2023-03-31T19:46:15;6.73;;;1.20;;
48006;SDS011;33771;48.180;11.400;2023-03-31T19:48:44;3.73;;;1.17;;
48006;SDS011;33771;48.180;11.400;2023-03-31T19:51:12;4.43;;;1.20;;
48006;SDS011;33771;48.180;11.400;2023-03-31T19:56:36;3.50;;;1.40;;
48006;SDS011;33771;48.180;11.400;2023-03-31T19:59:11;4.67;;;1.53;;
48006;SDS011;33771;48.180;11.400;2023-03-31T20:01:43;3.37;;;1.30;;
48006;SDS011;33771;48.180;11.400;2023-03-31T20:04:11;6.10;;;1.67;;
48006;SDS011;33771;48.180;11.400;2023-03-31T20:06:44;3.77;;;1.30;;
48006;SDS011;33771;48.180;11.400;2023-03-31T20:09:12;4.77;;;1.20;;
48006;SDS011;33771;48.180;11.400;2023-03-31T20:14:34;4.93;;;1.40;;
48006;SDS011;33771;48.180;11.400;2023-03-31T20:17:02;7.17;;;1.40;;
48006;SDS011;33771;48.180;11.400;2023-03-31T20:19:30;4.97;;;1.17;;
48006;SDS011;33771;48.180;11.400;2023-03-31T20:22:01;4.23;;;1.43;;
48006;SDS011;33771;48.180;11.400;2023-03-31T20:27:42;3.83;;;1.30;;
48006;SDS011;33771;48.180;11.400;2023-03-31T20:33:24;5.17;;;1.30;;
48006;SDS011;33771;48.180;11.400;2023-03-31T20:36:05;6.13;;;1.63;;
48006;SDS011;33771;48.180;11.400;2023-03-31T20:38:53;4.27;;;1.70;;
48006;SDS011;33771;48.180;11.400;2023-03-31T20:41:23;7.87;;;1.60;;
48006;SDS011;33771;48.180;11.400;2023-03-31T20:43:54;5.00;;;1.37;;
48006;SDS011;33771;48.180;11.400;2023-03-31T20:46:23;2.63;;;1.10;;
48006;SDS011;33771;48.180;11.400;2023-03-31T20:48:53;3.53;;;1.40;;
48006;SDS011;33771;48.180;11.400;2023-03-31T20:51:24;3.40;;;1.23;;
48006;SDS011;33771;48.180;11.400;2023-03-31T20:53:51;6.17;;;1.50;;
48006;SDS011;33771;48.180;11.400;2023-03-31T20:56:23;5.40;;;1.43;;
48006;SDS011;33771;48.180;11.400;2023-03-31T20:59:16;6.27;;;1.40;;
48006;SDS011;33771;48.180;11.400;2023-03-31T21:01:55;6.30;;;1.40;;
48006;SDS011;33771;48.180;11.400;2023-03-31T21:04:23;6.30;;;1.53;;
48006;SDS011;33771;48.180;11.400;2023-03-31T21:06:49;3.57;;;1.27;;
48006;SDS011;33771;48.180;11.400;2023-03-31T21:09:20;5.10;;;1.30;;
48006;SDS011;33771;48.180;11.400;2023-03-31T21:11:48;5.33;;;1.50;;
48006;SDS011;33771;48.180;11.400;2023-03-31T21:14:14;6.03;;;1.77;;
48006;SDS011;33771;48.180;11.400;2023-03-31T21:16:40;6.17;;;1.47;;
48006;SDS011;33771;48.180;11.400;2023-03-31T21:19:08;5.10;;;1.50;;
48006;SDS011;33771;48.180;11.400;2023-03-31T21:21:34;4.53;;;1.33;;
48006;SDS011;33771;48.180;11.400;2023-03-31T21:23:59;5.97;;;1.50;;
48006;SDS011;33771;48.180;11.400;2023-03-31T21:26:25;4.93;;;1.40;;
48006;SDS011;33771;48.180;11.400;2023-03-31T21:28:51;4.80;;;1.60;;